Time;durP1;ratioP1;P1;durP2;ratioP2;P2;SDS_P1;SDS_P2;PMS_P1;PMS_P2;Temp;Humidity;BMP_temperature;BMP_pressure;BME280_temperature;BME280_humidity;BME280_pressure;Samples;Min_cycle;Max_cycle;Signal;HPM_P1;HPM_P2
2022/01/09 00:00:01;;;;;;;7.72;5.85;;;3.20;91.30;;;;;;5095279;28;20036;-60
2022/01/09 00:02:28;;;;;;;6.60;5.05;;;3.20;91.40;;;;;;5110069;28;20389;-60
2022/01/09 00:04:54;;;;;;;6.35;5.03;;;3.20;91.40;;;;;;5092100;28;20032;-61
2022/01/09 00:07:24;;;;;;;7.57;5.38;;;3.20;91.30;;;;;;5113741;28;20032;-59
2022/01/09 00:09:51;;;;;;;5.47;4.38;;;3.20;91.30;;;;;;5113499;28;20039;-61
2022/01/09 00:12:17;;;;;;;5.10;4.22;;;3.30;91.30;;;;;;5069262;28;20024;-61
2022/01/09 00:14:44;;;;;;;5.78;4.32;;;3.30;91.40;;;;;;5108125;28;20034;-61
2022/01/09 00:17:11;;;;;;;5.82;4.15;;;3.30;91.20;;;;;;5077151;28;20050;-58
2022/01/09 00:19:37;;;;;;;5.75;3.72;;;3.30;91.30;;;;;;5112764;28;20387;-61
2022/01/09 00:22:04;;;;;;;7.88;3.92;;;3.30;91.30;;;;;;5105161;28;20039;-61
2022/01/09 00:24:31;;;;;;;6.18;4.38;;;3.30;91.30;;;;;;5083745;28;20437;-61
2022/01/09 00:26:58;;;;;;;5.32;3.92;;;3.30;91.30;;;;;;5111884;28;20038;-59
2022/01/09 00:29:25;;;;;;;5.75;4.32;;;3.30;91.20;;;;;;5113189;28;20442;-61
2022/01/09 00:31:52;;;;;;;7.80;4.45;;;3.30;91.20;;;;;;5108580;28;20086;-59
2022/01/09 00:34:19;;;;;;;5.53;3.90;;;3.30;91.30;;;;;;5075783;28;20024;-61
2022/01/09 00:36:46;;;;;;;5.63;4.13;;;3.30;91.30;;;;;;5093526;28;20233;-58
2022/01/09 00:39:13;;;;;;;5.85;3.80;;;3.30;91.30;;;;;;5113611;28;20023;-61
2022/01/09 00:41:39;;;;;;;8.27;3.92;;;3.30;91.40;;;;;;5076849;28;20048;-61
2022/01/09 00:44:11;;;;;;;5.95;4.25;;;3.30;91.50;;;;;;5093214;28;20459;-62
2022/01/09 00:46:38;;;;;;;6.20;4.63;;;3.40;91.50;;;;;;5092803;28;20130;-60
2022/01/09 00:49:05;;;;;;;6.80;4.35;;;3.30;91.40;;;;;;5088353;28;20043;-61
2022/01/09 00:51:31;;;;;;;5.63;4.03;;;3.30;91.50;;;;;;5082241;28;20028;-61
2022/01/09 00:53:58;;;;;;;6.40;4.13;;;3.30;91.50;;;;;;5113338;28;20039;-61
2022/01/09 00:56:25;;;;;;;7.03;4.68;;;3.30;91.40;;;;;;5111307;28;20044;-61
2022/01/09 00:58:56;;;;;;;5.85;4.00;;;3.30;91.50;;;;;;5104365;28;20126;-58
2022/01/09 01:01:23;;;;;;;4.97;4.13;;;3.40;91.50;;;;;;5096620;28;20032;-61
2022/01/09 01:03:49;;;;;;;5.55;3.92;;;3.40;91.40;;;;;;5089820;28;20058;-61
2022/01/09 01:06:16;;;;;;;5.70;4.53;;;3.40;91.40;;;;;;5076001;28;20032;-59
2022/01/09 01:08:45;;;;;;;6.72;3.90;;;3.40;91.40;;;;;;5095194;28;20115;-61
2022/01/09 01:11:12;;;;;;;5.65;4.18;;;3.40;91.40;;;;;;5090170;28;20058;-61
2022/01/09 01:13:39;;;;;;;5.30;3.58;;;3.40;91.40;;;;;;5092537;28;20531;-61
2022/01/09 01:16:06;;;;;;;5.72;3.75;;;3.40;91.40;;;;;;5112527;28;20039;-61
2022/01/09 01:18:32;;;;;;;4.53;3.53;;;3.40;91.40;;;;;;5083854;28;20028;-60
2022/01/09 01:21:00;;;;;;;5.68;3.92;;;3.40;91.40;;;;;;5092259;28;20036;-61
2022/01/09 01:23:27;;;;;;;5.80;3.95;;;3.40;91.30;;;;;;5105003;28;20345;-60
2022/01/09 01:26:00;;;;;;;5.72;4.18;;;3.40;91.40;;;;;;5079836;28;20031;-61
2022/01/09 01:28:30;;;;;;;5.68;4.03;;;3.40;91.30;;;;;;5103465;28;20028;-61
2022/01/09 01:30:58;;;;;;;7.07;4.07;;;3.40;91.30;;;;;;5116415;28;20189;-61
2022/01/09 01:33:25;;;;;;;5.25;3.97;;;3.40;91.30;;;;;;5092820;28;20132;-60
2022/01/09 01:35:50;;;;;;;6.55;4.30;;;3.40;91.40;;;;;;5107737;28;20031;-60
2022/01/09 01:38:17;;;;;;;7.72;4.13;;;3.40;91.40;;;;;;5111799;28;20031;-61
2022/01/09 01:40:44;;;;;;;6.25;4.00;;;3.40;91.40;;;;;;5106574;28;20031;-61
2022/01/09 01:43:11;;;;;;;6.10;4.30;;;3.40;91.40;;;;;;5114878;28;20039;-59
2022/01/09 01:45:37;;;;;;;4.43;3.58;;;3.40;91.50;;;;;;5081538;28;20048;-59
2022/01/09 01:48:06;;;;;;;4.88;3.72;;;3.40;91.50;;;;;;5104977;28;20039;-61
2022/01/09 01:50:37;;;;;;;5.18;3.78;;;3.40;91.60;;;;;;5104521;28;20448;-61
2022/01/09 01:53:10;;;;;;;5.50;4.30;;;3.40;91.50;;;;;;5114935;28;20035;-60
2022/01/09 01:55:39;;;;;;;5.40;3.95;;;3.40;91.60;;;;;;5114128;28;20031;-58
2022/01/09 01:58:10;;;;;;;6.00;3.78;;;3.40;91.50;;;;;;5107082;28;20469;-59
2022/01/09 02:00:41;;;;;;;6.10;3.88;;;3.40;91.50;;;;;;5116229;28;20043;-58
2022/01/09 02:03:08;;;;;;;5.80;4.15;;;3.40;91.40;;;;;;5111944;28;20031;-57
2022/01/09 02:05:34;;;;;;;5.75;4.95;;;3.40;91.40;;;;;;5097059;28;20024;-58
2022/01/09 02:08:02;;;;;;;5.72;3.85;;;3.50;91.30;;;;;;5096934;28;20449;-54
2022/01/09 02:10:29;;;;;;;5.60;4.53;;;3.50;91.20;;;;;;5113732;28;20411;-57
2022/01/09 02:12:57;;;;;;;5.00;4.35;;;3.40;91.20;;;;;;5114851;28;20367;-54
2022/01/09 02:15:38;;;;;;;5.47;4.47;;;3.40;91.30;;;;;;5101069;28;20020;-57
2022/01/09 02:18:07;;;;;;;6.50;4.97;;;3.40;91.40;;;;;;5085197;28;20024;-58
2022/01/09 02:20:34;;;;;;;7.40;5.57;;;3.40;91.50;;;;;;5090039;28;20034;-58
2022/01/09 02:23:02;;;;;;;6.63;5.25;;;3.40;91.40;;;;;;5101082;28;20605;-59
2022/01/09 02:25:29;;;;;;;6.75;5.57;;;3.40;91.40;;;;;;5102526;28;20016;-60
2022/01/09 02:27:56;;;;;;;7.65;5.30;;;3.40;91.40;;;;;;5092660;28;20028;-62
2022/01/09 02:30:23;;;;;;;6.75;5.85;;;3.40;91.40;;;;;;5076706;28;20434;-63
2022/01/09 02:32:50;;;;;;;7.03;5.65;;;3.40;91.40;;;;;;5096212;28;20036;-62
2022/01/09 02:35:20;;;;;;;7.00;5.97;;;3.40;91.40;;;;;;5101694;28;20563;-62
2022/01/09 02:37:46;;;;;;;7.95;6.60;;;3.40;91.50;;;;;;5102524;28;20123;-62
2022/01/09 02:40:13;;;;;;;7.00;6.20;;;3.40;91.40;;;;;;5095755;28;20111;-62
2022/01/09 02:42:40;;;;;;;7.13;6.43;;;3.40;91.40;;;;;;5094385;28;20028;-62
2022/01/09 02:45:07;;;;;;;6.95;5.63;;;3.40;91.30;;;;;;5104475;28;20072;-62
2022/01/09 02:47:35;;;;;;;7.75;6.72;;;3.30;91.30;;;;;;5076625;28;20024;-62
2022/01/09 02:52:56;;;;;;;6.90;5.85;;;3.30;91.40;;;;;;5115037;28;20035;-62
2022/01/09 02:55:26;;;;;;;8.05;6.40;;;3.20;91.40;;;;;;5101345;28;20025;-62
2022/01/09 02:57:58;;;;;;;7.63;6.82;;;3.20;91.40;;;;;;5110717;28;20036;-62
2022/01/09 03:00:30;;;;;;;7.90;6.55;;;3.20;91.50;;;;;;5078384;28;20051;-62
2022/01/09 03:02:58;;;;;;;8.02;7.22;;;3.20;91.60;;;;;;5088213;28;20122;-62
2022/01/09 03:05:26;;;;;;;7.85;7.05;;;3.20;91.60;;;;;;5100512;28;20028;-62
2022/01/09 03:07:53;;;;;;;9.00;7.57;;;3.20;91.60;;;;;;5105091;28;20069;-62
2022/01/09 03:10:21;;;;;;;8.02;7.22;;;3.20;91.60;;;;;;5113946;28;20024;-62
2022/01/09 03:12:50;;;;;;;8.55;7.65;;;3.20;91.60;;;;;;5096773;28;20040;-62
2022/01/09 03:15:17;;;;;;;9.32;8.32;;;3.10;91.60;;;;;;5089886;28;20039;-62
2022/01/09 03:17:44;;;;;;;8.05;7.10;;;3.20;91.70;;;;;;5095402;28;20042;-62
2022/01/09 03:20:12;;;;;;;9.02;8.13;;;3.20;91.70;;;;;;5094167;28;20069;-62
2022/01/09 03:22:42;;;;;;;8.57;7.68;;;3.20;91.70;;;;;;5089161;28;20031;-62
2022/01/09 03:25:12;;;;;;;9.10;8.20;;;3.10;91.60;;;;;;5095088;28;20024;-62
2022/01/09 03:27:39;;;;;;;;;;;3.20;91.60;;;;;;5101830;28;20127;-62
2022/01/09 03:30:09;;;;;;;8.73;7.82;;;3.20;91.70;;;;;;5059570;28;20214;-62
2022/01/09 03:32:37;;;;;;;9.00;8.10;;;3.20;91.60;;;;;;5093907;28;20118;-62
2022/01/09 03:35:10;;;;;;;9.27;8.18;;;3.10;91.60;;;;;;5094411;28;20059;-62
2022/01/09 03:37:37;;;;;;;8.80;7.90;;;3.10;91.60;;;;;;5113922;28;20028;-62
2022/01/09 03:40:05;;;;;;;8.85;7.75;;;3.10;91.60;;;;;;5107433;28;20484;-62
2022/01/09 03:42:33;;;;;;;8.68;7.78;;;3.10;91.70;;;;;;5090824;28;20080;-62
2022/01/09 03:44:58;;;;;;;9.32;8.43;;;3.10;91.70;;;;;;5099053;28;20429;-62
2022/01/09 03:47:25;;;;;;;9.00;8.02;;;3.20;91.70;;;;;;5114007;28;20024;-62
2022/01/09 03:49:51;;;;;;;8.55;7.60;;;3.10;91.80;;;;;;5099946;28;20072;-62
2022/01/09 03:52:18;;;;;;;8.30;7.15;;;3.10;91.70;;;;;;5113917;28;20049;-62
2022/01/09 03:54:44;;;;;;;7.30;6.60;;;3.10;91.60;;;;;;5097552;28;20032;-62
2022/01/09 03:57:11;;;;;;;7.07;6.38;;;3.10;91.60;;;;;;5105465;28;20039;-62
2022/01/09 03:59:38;;;;;;;8.23;7.43;;;3.10;91.50;;;;;;5091699;28;20458;-61
2022/01/09 04:02:05;;;;;;;8.43;7.15;;;3.00;91.50;;;;;;5076085;28;20084;-62
2022/01/09 04:04:31;;;;;;;7.70;6.10;;;3.00;91.60;;;;;;5080161;28;20024;-62
2022/01/09 04:06:57;;;;;;;7.13;6.35;;;3.00;91.60;;;;;;5093602;28;20047;-62
2022/01/09 04:09:37;;;;;;;7.63;6.68;;;2.90;91.60;;;;;;5076317;28;20453;-62
2022/01/09 04:12:14;;;;;;;6.70;5.70;;;3.00;91.60;;;;;;5113570;28;20023;-62
2022/01/09 04:14:43;;;;;;;6.72;6.00;;;3.00;91.50;;;;;;5090917;28;20093;-62
2022/01/09 04:17:16;;;;;;;7.32;6.45;;;3.00;91.60;;;;;;5095195;28;20460;-62
2022/01/09 04:19:43;;;;;;;6.47;5.70;;;3.00;91.60;;;;;;5110340;28;20035;-62
2022/01/09 04:22:10;;;;;;;7.50;6.72;;;3.00;91.60;;;;;;5105027;28;20031;-62
2022/01/09 04:24:37;;;;;;;6.70;6.00;;;2.90;91.70;;;;;;5091065;28;20342;-62
2022/01/09 04:27:05;;;;;;;7.05;6.35;;;2.90;91.70;;;;;;5078226;28;20024;-62
2022/01/09 04:29:31;;;;;;;7.18;5.88;;;3.00;91.70;;;;;;5098016;28;20357;-62
2022/01/09 04:31:58;;;;;;;7.70;6.53;;;2.90;91.70;;;;;;5076367;28;20472;-61
2022/01/09 04:34:25;;;;;;;6.72;5.82;;;2.90;91.70;;;;;;5109439;28;20032;-61
2022/01/09 04:36:53;;;;;;;6.63;5.57;;;2.90;91.70;;;;;;5075526;28;20038;-62
2022/01/09 04:39:19;;;;;;;5.95;4.95;;;3.00;91.70;;;;;;5075164;28;20032;-62
2022/01/09 04:41:49;;;;;;;7.60;5.95;;;2.90;91.80;;;;;;5092722;28;20044;-62
2022/01/09 04:44:16;;;;;;;;;;;2.90;91.80;;;;;;5093228;28;20031;-62
2022/01/09 04:46:49;;;;;;;6.95;5.78;;;3.00;91.80;;;;;;5095785;28;19963;-62
2022/01/09 04:49:21;;;;;;;6.57;5.90;;;2.90;91.80;;;;;;5113119;28;20050;-62
2022/01/09 04:51:47;;;;;;;7.32;6.38;;;3.00;91.80;;;;;;5101521;28;20436;-62
2022/01/09 04:54:14;;;;;;;8.02;6.57;;;3.00;91.90;;;;;;5095420;28;20038;-62
2022/01/09 04:56:42;;;;;;;8.25;7.05;;;2.90;91.90;;;;;;5092096;28;20131;-62
2022/01/09 04:59:08;;;;;;;7.30;6.43;;;2.90;91.90;;;;;;5105959;28;20035;-62
2022/01/09 05:01:35;;;;;;;8.18;6.80;;;2.90;92.00;;;;;;5098171;28;20060;-62
2022/01/09 05:04:00;;;;;;;7.75;6.68;;;3.00;92.00;;;;;;5115709;28;20027;-62
2022/01/09 05:06:27;;;;;;;7.93;7.10;;;3.00;92.10;;;;;;5080142;28;20376;-62
2022/01/09 05:08:54;;;;;;;8.98;7.32;;;3.00;92.10;;;;;;5096690;28;20028;-62
2022/01/09 05:11:21;;;;;;;8.30;6.53;;;3.00;92.10;;;;;;5106897;28;20486;-62
2022/01/09 05:13:48;;;;;;;7.85;6.43;;;3.00;92.10;;;;;;5089213;28;20050;-62
2022/01/09 05:16:15;;;;;;;7.72;5.85;;;3.00;92.10;;;;;;5101123;28;20105;-62
2022/01/09 05:18:52;;;;;;;8.60;6.60;;;3.00;92.20;;;;;;5111338;28;20057;-62
2022/01/09 05:21:18;;;;;;;7.30;5.82;;;3.10;92.20;;;;;;5103396;28;20497;-62
2022/01/09 05:23:45;;;;;;;7.63;6.30;;;3.10;92.10;;;;;;5097407;28;20028;-62
2022/01/09 05:26:13;;;;;;;8.80;7.20;;;3.10;92.10;;;;;;5081481;28;20155;-62
2022/01/09 05:28:39;;;;;;;7.60;6.32;;;3.20;92.20;;;;;;5103615;28;20047;-62
2022/01/09 05:31:06;;;;;;;7.30;5.88;;;3.10;92.10;;;;;;5096343;28;20039;-61
2022/01/09 05:33:33;;;;;;;7.45;6.07;;;3.20;92.20;;;;;;5097751;28;20433;-61
2022/01/09 05:35:59;;;;;;;7.47;6.00;;;3.20;92.30;;;;;;5096270;28;20028;-61
2022/01/09 05:38:25;;;;;;;6.38;5.47;;;3.20;92.30;;;;;;5110690;28;20516;-61
2022/01/09 05:40:52;;;;;;;7.00;5.60;;;3.20;92.20;;;;;;5104162;28;20032;-62
2022/01/09 05:43:19;;;;;;;7.43;5.95;;;3.20;92.20;;;;;;5095959;28;20076;-62
2022/01/09 05:45:48;;;;;;;14.93;11.30;;;3.20;92.30;;;;;;5106682;28;20679;-61
2022/01/09 05:48:16;;;;;;;11.30;8.95;;;3.10;92.30;;;;;;5116740;28;20039;-62
2022/01/09 05:50:43;;;;;;;7.82;6.68;;;3.20;92.40;;;;;;5114662;28;20035;-62
2022/01/09 05:53:11;;;;;;;8.70;7.28;;;3.20;92.40;;;;;;5101417;28;20062;-62
2022/01/09 05:55:37;;;;;;;8.45;7.20;;;3.20;92.50;;;;;;5106633;28;20054;-62
2022/01/09 05:58:05;;;;;;;11.85;6.97;;;3.20;92.50;;;;;;5106138;28;20155;-62
2022/01/09 06:00:33;;;;;;;7.82;6.45;;;3.20;92.60;;;;;;5115780;28;20031;-62
2022/01/09 06:03:00;;;;;;;8.75;7.10;;;3.30;92.50;;;;;;5096948;28;20085;-62
2022/01/09 06:05:27;;;;;;;8.18;6.50;;;3.30;92.60;;;;;;5095281;28;20395;-62
2022/01/09 06:07:53;;;;;;;9.73;7.38;;;3.30;92.60;;;;;;5078610;28;20100;-62
2022/01/09 06:10:19;;;;;;;10.05;7.57;;;3.40;92.60;;;;;;5100189;28;20440;-62
2022/01/09 06:12:46;;;;;;;8.15;6.75;;;3.40;92.60;;;;;;5097927;28;20049;-62
2022/01/09 06:15:13;;;;;;;9.43;7.70;;;3.40;92.70;;;;;;5102814;28;20023;-62
2022/01/09 06:17:43;;;;;;;10.13;7.38;;;3.40;92.60;;;;;;5083842;28;20042;-62
2022/01/09 06:20:10;;;;;;;;;;;3.40;92.60;;;;;;5093360;28;20024;-61
2022/01/09 06:22:37;;;;;;;10.75;8.27;;;3.40;92.60;;;;;;5114009;28;20254;-61
2022/01/09 06:25:05;;;;;;;9.32;7.70;;;3.40;92.60;;;;;;5109375;28;20423;-61
2022/01/09 06:27:32;;;;;;;12.43;8.23;;;3.50;92.70;;;;;;5099224;28;20026;-61
2022/01/09 06:29:59;;;;;;;12.25;8.52;;;3.50;92.70;;;;;;5108394;28;20027;-61
2022/01/09 06:32:25;;;;;;;12.27;9.00;;;3.50;92.70;;;;;;5115213;28;20028;-61
2022/01/09 06:34:52;;;;;;;12.00;9.27;;;3.50;92.60;;;;;;5080409;28;20036;-61
2022/01/09 06:37:18;;;;;;;11.05;8.73;;;3.50;92.70;;;;;;5093060;28;20027;-61
2022/01/09 06:39:45;;;;;;;11.38;8.63;;;3.50;92.80;;;;;;5113343;28;20456;-60
2022/01/09 06:42:12;;;;;;;11.48;8.73;;;3.60;92.80;;;;;;5101752;28;20036;-62
2022/01/09 06:44:39;;;;;;;11.80;9.20;;;3.60;92.80;;;;;;5094711;28;20052;-62
2022/01/09 06:47:07;;;;;;;12.48;9.27;;;3.60;92.80;;;;;;5108136;28;20050;-61
2022/01/09 06:49:36;;;;;;;12.15;10.18;;;3.60;92.80;;;;;;5113429;28;20105;-62
2022/01/09 06:52:04;;;;;;;12.88;10.40;;;3.70;92.80;;;;;;5094847;28;20357;-62
2022/01/09 06:54:30;;;;;;;12.07;9.68;;;3.70;92.80;;;;;;5094468;28;20071;-63
2022/01/09 06:56:57;;;;;;;14.15;9.57;;;3.60;92.80;;;;;;5096705;28;20058;-62
2022/01/09 06:59:24;;;;;;;11.75;9.70;;;3.70;92.90;;;;;;5087600;28;20023;-62
2022/01/09 07:01:51;;;;;;;14.65;9.77;;;3.70;92.90;;;;;;5114988;28;20509;-62
2022/01/09 07:04:17;;;;;;;12.07;9.65;;;3.70;92.90;;;;;;5099814;28;20048;-62
2022/01/09 07:06:46;;;;;;;15.45;9.57;;;3.80;93.00;;;;;;5100633;28;20110;-63
2022/01/09 07:09:12;;;;;;;16.75;10.30;;;3.80;93.00;;;;;;5094381;28;20028;-62
2022/01/09 07:11:39;;;;;;;13.23;8.98;;;3.90;93.00;;;;;;5094904;28;20403;-63
2022/01/09 07:14:06;;;;;;;14.38;8.80;;;3.90;93.10;;;;;;5110292;28;20036;-62
2022/01/09 07:16:33;;;;;;;14.13;9.23;;;4.00;93.20;;;;;;5106635;28;20157;-62
2022/01/09 07:18:59;;;;;;;13.35;9.98;;;4.10;93.20;;;;;;5110241;28;20035;-62
2022/01/09 07:21:25;;;;;;;17.63;9.65;;;4.10;93.30;;;;;;5112302;28;20042;-62
2022/01/09 07:23:51;;;;;;;14.75;9.43;;;4.20;93.30;;;;;;5114255;28;20026;-62
2022/01/09 07:26:19;;;;;;;12.90;7.82;;;4.20;93.30;;;;;;5112727;28;20039;-62
2022/01/09 07:28:46;;;;;;;15.70;8.15;;;4.30;93.30;;;;;;5111697;28;20027;-63
2022/01/09 07:31:13;;;;;;;22.90;8.05;;;4.30;93.30;;;;;;5112040;28;20034;-63
2022/01/09 07:33:40;;;;;;;19.30;8.07;;;4.40;93.40;;;;;;5112765;28;20447;-63
2022/01/09 07:36:06;;;;;;;11.23;4.40;;;4.40;93.40;;;;;;5113775;28;20035;-63
2022/01/09 07:38:33;;;;;;;18.45;3.47;;;4.50;93.60;;;;;;5095149;28;20522;-63
2022/01/09 07:41:00;;;;;;;24.17;4.72;;;4.70;93.60;;;;;;5111642;28;20084;-63
2022/01/09 07:43:29;;;;;;;18.60;3.28;;;4.70;93.60;;;;;;5113959;28;20032;-63
2022/01/09 07:45:56;;;;;;;18.17;3.90;;;4.90;93.70;;;;;;5075464;28;20051;-63
2022/01/09 07:48:26;;;;;;;18.95;3.22;;;4.90;93.60;;;;;;5095114;28;20031;-63
2022/01/09 07:50:54;;;;;;;20.83;3.05;;;4.90;93.40;;;;;;5112417;28;20023;-63
2022/01/09 07:53:23;;;;;;;21.15;4.00;;;5.00;93.30;;;;;;5112605;28;20035;-63
2022/01/09 07:55:51;;;;;;;21.88;4.78;;;5.10;93.20;;;;;;5110276;28;20102;-63
2022/01/09 07:58:20;;;;;;;31.95;5.47;;;5.10;93.00;;;;;;5112042;28;20051;-62
2022/01/09 08:00:47;;;;;;;24.02;4.20;;;5.20;92.90;;;;;;5107544;28;20313;-63
2022/01/09 08:03:17;;;;;;;28.73;4.82;;;5.20;92.80;;;;;;5110911;28;20028;-63
2022/01/09 08:05:44;;;;;;;19.13;3.33;;;5.20;92.70;;;;;;5109657;28;20452;-63
2022/01/09 08:08:10;;;;;;;18.20;3.42;;;5.20;92.60;;;;;;5113099;28;20106;-63
2022/01/09 08:10:37;;;;;;;21.17;3.28;;;5.20;92.60;;;;;;5103276;28;20115;-63
2022/01/09 08:13:04;;;;;;;11.80;4.13;;;5.20;92.60;;;;;;5107621;28;20341;-63
2022/01/09 08:15:30;;;;;;;23.45;3.25;;;5.20;92.60;;;;;;5111886;28;20450;-63
2022/01/09 08:17:57;;;;;;;17.20;3.28;;;5.20;92.60;;;;;;5107561;28;20461;-63
2022/01/09 08:20:23;;;;;;;21.23;3.97;;;5.20;92.60;;;;;;5093286;28;20061;-63
2022/01/09 08:22:50;;;;;;;17.90;4.25;;;5.20;92.60;;;;;;5113516;28;20402;-63
2022/01/09 08:25:18;;;;;;;20.15;3.70;;;5.20;92.60;;;;;;5093565;28;20495;-63
2022/01/09 08:27:47;;;;;;;23.00;4.63;;;5.20;92.60;;;;;;5094299;28;20016;-63
2022/01/09 08:30:15;;;;;;;20.60;3.90;;;5.20;92.70;;;;;;5089627;28;20046;-63
2022/01/09 08:32:42;;;;;;;19.23;3.97;;;5.30;92.70;;;;;;5082949;28;20031;-63
2022/01/09 08:35:09;;;;;;;17.73;4.32;;;5.30;92.80;;;;;;5078742;28;20039;-63
2022/01/09 08:37:36;;;;;;;29.02;5.28;;;5.30;92.80;;;;;;5104275;28;20611;-63
2022/01/09 08:40:04;;;;;;;30.00;4.30;;;5.30;92.80;;;;;;5117118;28;20107;-64
2022/01/09 08:42:32;;;;;;;17.27;3.97;;;5.30;92.80;;;;;;5110380;28;20419;-63
2022/01/09 08:44:58;;;;;;;21.33;4.68;;;5.30;92.80;;;;;;5107293;28;20035;-63
2022/01/09 08:47:25;;;;;;;11.93;2.97;;;5.30;92.80;;;;;;5111114;28;20037;-63
2022/01/09 08:49:51;;;;;;;17.85;4.72;;;5.30;92.80;;;;;;5116177;28;20035;-63
2022/01/09 08:52:17;;;;;;;16.13;2.92;;;5.30;92.80;;;;;;5107668;28;20039;-64
2022/01/09 08:54:48;;;;;;;22.25;3.67;;;5.30;92.80;;;;;;5097651;28;20060;-62
2022/01/09 08:57:16;;;;;;;28.10;4.53;;;5.30;92.80;;;;;;5107010;28;20047;-62
2022/01/09 08:59:45;;;;;;;26.05;5.38;;;5.30;92.80;;;;;;5098060;28;20438;-62
2022/01/09 09:02:12;;;;;;;20.58;3.90;;;5.30;92.80;;;;;;5097969;28;20039;-62
2022/01/09 09:04:39;;;;;;;19.50;3.70;;;5.30;92.80;;;;;;5088191;28;20070;-62
2022/01/09 09:07:05;;;;;;;21.70;4.35;;;5.30;92.90;;;;;;5102455;28;20086;-63
2022/01/09 09:09:32;;;;;;;30.52;4.82;;;5.30;92.90;;;;;;5110852;28;20040;-62
2022/01/09 09:11:59;;;;;;;27.35;5.18;;;5.30;92.90;;;;;;5110008;28;20032;-62
2022/01/09 09:14:26;;;;;;;22.85;3.60;;;5.40;93.00;;;;;;5108127;28;20027;-60
2022/01/09 09:16:52;;;;;;;22.48;3.85;;;5.40;93.00;;;;;;5110448;28;20031;-62
2022/01/09 09:19:18;;;;;;;23.67;4.43;;;5.40;93.00;;;;;;5108004;28;20039;-61
2022/01/09 09:21:46;;;;;;;23.50;5.85;;;5.40;93.00;;;;;;5113025;28;20353;-59
2022/01/09 09:24:15;;;;;;;32.75;4.00;;;5.40;93.10;;;;;;5114966;28;20027;-59
2022/01/09 09:26:45;;;;;;;26.48;4.30;;;5.50;93.10;;;;;;5109705;28;20028;-58
2022/01/09 09:29:12;;;;;;;29.58;3.85;;;5.50;93.10;;;;;;5102948;28;20032;-57
2022/01/09 09:31:41;;;;;;;22.80;5.35;;;5.50;93.10;;;;;;5096360;28;20467;-56
2022/01/09 09:34:08;;;;;;;27.75;4.78;;;5.50;93.10;;;;;;5115744;28;20035;-56
2022/01/09 09:36:38;;;;;;;29.98;3.92;;;5.50;93.00;;;;;;5105571;28;20055;-56
2022/01/09 09:39:05;;;;;;;;;;;5.50;93.00;;;;;;5111832;28;20386;-53
2022/01/09 09:41:32;;;;;;;27.35;4.68;;;5.60;93.00;;;;;;5098579;28;20269;-55
2022/01/09 09:43:59;;;;;;;27.25;3.75;;;5.70;92.90;;;;;;5093619;28;20449;-50
2022/01/09 09:46:26;;;;;;;31.02;6.22;;;5.70;92.90;;;;;;5101321;28;20512;-51
2022/01/09 09:48:54;;;;;;;18.83;4.28;;;5.70;92.80;;;;;;5115657;28;20042;-48
2022/01/09 09:51:24;;;;;;;34.47;4.85;;;5.80;92.70;;;;;;5106983;28;20064;-48
2022/01/09 09:53:55;;;;;;;26.92;5.35;;;5.90;92.70;;;;;;5115240;28;20024;-47
2022/01/09 09:56:22;;;;;;;21.02;3.80;;;5.90;92.50;;;;;;5111843;28;20449;-52
2022/01/09 09:58:52;;;;;;;18.58;4.18;;;5.90;92.40;;;;;;5080727;28;20047;-48
2022/01/09 10:01:28;;;;;;;26.95;3.30;;;5.90;92.20;;;;;;5095752;28;20039;-46
2022/01/09 10:04:05;;;;;;;20.65;3.42;;;6.00;92.00;;;;;;5098643;28;20015;-50
2022/01/09 10:06:49;;;;;;;17.90;3.53;;;5.90;91.80;;;;;;5112322;28;20415;-52
2022/01/09 10:09:36;;;;;;;20.52;5.25;;;5.90;91.60;;;;;;5084683;28;20032;-48
2022/01/09 10:12:04;;;;;;;25.00;4.38;;;5.90;91.50;;;;;;5104269;28;20039;-49
2022/01/09 10:14:34;;;;;;;18.17;4.18;;;5.90;91.30;;;;;;5098505;28;20035;-50
2022/01/09 10:17:19;;;;;;;13.02;2.50;;;5.90;91.00;;;;;;5098947;28;20047;-49
2022/01/09 10:20:08;;;;;;;22.02;3.35;;;5.90;90.90;;;;;;5095191;28;20047;-48
2022/01/09 10:22:53;;;;;;;16.38;2.42;;;5.90;90.80;;;;;;5105305;28;20038;-45
2022/01/09 10:25:27;;;;;;;11.15;2.85;;;6.00;90.70;;;;;;5098407;28;20015;-47
2022/01/09 10:28:03;;;;;;;17.55;3.38;;;6.00;90.60;;;;;;5110288;28;20465;-46
2022/01/09 10:30:33;;;;;;;19.52;3.38;;;6.00;90.50;;;;;;5105221;28;20040;-47
2022/01/09 10:33:04;;;;;;;21.70;3.10;;;6.00;90.30;;;;;;5104004;28;20368;-49
2022/01/09 10:35:31;;;;;;;13.45;2.45;;;6.00;90.10;;;;;;5095346;28;20076;-45
2022/01/09 10:38:19;;;;;;;15.43;2.75;;;6.00;89.70;;;;;;5114026;28;20067;-47
2022/01/09 10:40:49;;;;;;;16.85;2.58;;;6.10;89.80;;;;;;5112146;28;20055;-44
2022/01/09 10:43:36;;;;;;;10.70;4.22;;;6.10;89.70;;;;;;5111675;28;20593;-51
2022/01/09 10:46:03;;;;;;;11.10;3.17;;;6.20;89.50;;;;;;5097318;28;20050;-49
2022/01/09 10:48:41;;;;;;;14.45;2.50;;;6.10;89.40;;;;;;5095726;28;20012;-48
2022/01/09 10:51:14;;;;;;;13.15;2.42;;;6.10;89.60;;;;;;5110519;28;20461;-44
2022/01/09 10:53:43;;;;;;;14.35;3.28;;;6.10;89.40;;;;;;5114034;28;20400;-43
2022/01/09 10:56:16;;;;;;;10.70;2.33;;;6.20;89.10;;;;;;5113252;28;20057;-44
2022/01/09 10:58:46;;;;;;;19.08;5.35;;;6.10;88.90;;;;;;5095138;28;20624;-47
2022/01/09 11:01:18;;;;;;;13.43;2.58;;;6.20;89.00;;;;;;5095276;28;20073;-44
2022/01/09 11:03:48;;;;;;;14.90;2.55;;;6.20;89.00;;;;;;5102246;28;20464;-45
2022/01/09 11:06:16;;;;;;;9.90;1.83;;;6.20;88.80;;;;;;5094920;28;20123;-45
2022/01/09 11:08:43;;;;;;;8.15;2.20;;;6.20;88.40;;;;;;5104062;28;20555;-43
2022/01/09 11:14:00;;;;;;;12.73;4.57;;;6.20;87.80;;;;;;5105888;28;20080;-45
2022/01/09 11:16:34;;;;;;;13.07;2.03;;;6.20;87.70;;;;;;5107803;28;20218;-45
2022/01/09 11:19:14;;;;;;;8.65;2.50;;;6.10;87.80;;;;;;5096655;28;20035;-45
2022/01/09 11:21:48;;;;;;;11.60;2.40;;;6.20;87.80;;;;;;5108549;28;20100;-46
2022/01/09 11:24:34;;;;;;;18.23;3.45;;;6.10;87.50;;;;;;5114006;28;20088;-47
2022/01/09 11:27:23;;;;;;;15.70;2.13;;;6.10;87.70;;;;;;5110145;28;20442;-46
2022/01/09 11:30:00;;;;;;;13.93;2.63;;;6.10;87.70;;;;;;5105528;28;20070;-45
2022/01/09 11:33:00;;;;;;;12.73;3.80;;;6.20;87.60;;;;;;5095194;28;20350;-46
2022/01/09 11:35:38;;;;;;;13.63;4.60;;;6.20;87.60;;;;;;5110405;28;20337;-46
2022/01/09 11:38:26;;;;;;;18.42;3.85;;;6.20;87.40;;;;;;5103931;28;20035;-43
2022/01/09 11:40:53;;;;;;;13.20;3.15;;;6.20;87.40;;;;;;5101121;28;20047;-43
2022/01/09 11:43:20;;;;;;;17.10;5.70;;;6.20;87.40;;;;;;5102600;28;20031;-44
2022/01/09 11:46:02;;;;;;;16.33;3.75;;;6.30;87.40;;;;;;5105955;28;20047;-45
2022/01/09 11:48:58;;;;;;;13.30;4.07;;;6.30;87.00;;;;;;5093837;28;20570;-43
2022/01/09 11:51:29;;;;;;;11.80;2.03;;;6.30;86.90;;;;;;5074242;28;20020;-42
2022/01/09 11:54:10;;;;;;;12.35;2.72;;;6.30;86.90;;;;;;5073965;28;20035;-43
2022/01/09 11:56:55;;;;;;;12.02;2.05;;;6.30;87.00;;;;;;5105874;28;20038;-43
2022/01/09 11:59:34;;;;;;;15.80;3.45;;;6.40;87.40;;;;;;5104260;28;20031;-42
2022/01/09 12:02:18;;;;;;;14.00;2.70;;;6.50;86.30;;;;;;5103080;28;20035;-48
2022/01/09 12:04:45;;;;;;;10.60;2.00;;;6.50;86.40;;;;;;5098038;28;20073;-45
2022/01/09 12:07:19;;;;;;;9.60;3.03;;;6.50;86.50;;;;;;5094792;28;20028;-43
2022/01/09 12:09:50;;;;;;;14.18;2.28;;;6.50;86.10;;;;;;5109373;28;20102;-46
2022/01/09 12:12:29;;;;;;;14.95;2.90;;;6.50;86.40;;;;;;5092782;28;20035;-43
2022/01/09 12:15:05;;;;;;;11.18;1.85;;;6.50;86.00;;;;;;5106566;28;20028;-43
2022/01/09 12:17:39;;;;;;;15.25;2.47;;;6.50;86.30;;;;;;5087964;28;20028;-45
2022/01/09 12:20:14;;;;;;;8.43;2.25;;;6.40;86.50;;;;;;5105326;28;20440;-44
2022/01/09 12:22:49;;;;;;;14.20;3.17;;;6.40;87.00;;;;;;5102718;28;20028;-62
2022/01/09 12:25:33;;;;;;;9.10;2.13;;;6.20;87.80;;;;;;5100338;28;20022;-62
2022/01/09 12:28:14;;;;;;;15.30;3.53;;;6.00;88.40;;;;;;5102314;28;20111;-65
2022/01/09 12:30:47;;;;;;;12.02;2.92;;;5.80;88.60;;;;;;5099092;28;20102;-64
2022/01/09 12:33:20;;;;;;;8.73;2.20;;;5.70;88.60;;;;;;5098421;28;20038;-63
2022/01/09 12:35:54;;;;;;;12.18;2.28;;;5.60;88.50;;;;;;5096045;28;20031;-62
2022/01/09 12:38:22;;;;;;;8.90;2.20;;;5.60;88.80;;;;;;5102427;28;20031;-62
2022/01/09 12:41:11;;;;;;;8.80;2.05;;;5.70;88.50;;;;;;5111633;28;20811;-62
2022/01/09 12:43:38;;;;;;;10.10;2.70;;;5.70;88.50;;;;;;5105407;28;20020;-63
2022/01/09 12:46:13;;;;;;;12.45;2.85;;;5.70;88.80;;;;;;5092123;28;20461;-60
2022/01/09 12:48:40;;;;;;;8.95;2.17;;;5.70;89.10;;;;;;5080772;28;20066;-59
2022/01/09 12:51:15;;;;;;;9.45;2.63;;;5.70;89.20;;;;;;5097264;28;20457;-56
2022/01/09 12:53:44;;;;;;;9.90;2.08;;;5.60;89.50;;;;;;5090126;28;20043;-50
2022/01/09 12:56:14;;;;;;;7.93;2.05;;;5.50;89.60;;;;;;5109530;28;20035;-50
2022/01/09 12:58:45;;;;;;;12.68;2.22;;;5.50;89.90;;;;;;5110268;28;20043;-56
2022/01/09 13:01:16;;;;;;;11.85;3.38;;;5.60;90.00;;;;;;5100735;28;20057;-49
2022/01/09 13:03:55;;;;;;;12.73;2.08;;;5.60;90.00;;;;;;5107006;28;20090;-50
2022/01/09 13:06:41;;;;;;;10.77;3.00;;;5.60;89.80;;;;;;5100343;28;20032;-46
2022/01/09 13:09:19;;;;;;;14.35;3.17;;;5.70;89.90;;;;;;5098531;28;20028;-47